createdAt,value
2023-02-08T00:01:26.932Z,28.85
2023-02-08T00:03:56.781Z,27.02
2023-02-08T00:06:25.097Z,27.23
2023-02-08T00:08:55.048Z,26.90
2023-02-08T00:11:24.149Z,27.17
2023-02-08T00:13:52.219Z,27.67
2023-02-08T00:16:20.498Z,29.80
2023-02-08T00:18:49.527Z,27.60
2023-02-08T00:21:18.749Z,29.02
2023-02-08T00:23:47.539Z,26.67
2023-02-08T00:26:17.315Z,26.02
2023-02-08T00:28:45.895Z,25.90
2023-02-08T00:31:16.512Z,27.00
2023-02-08T00:33:44.577Z,27.00
2023-02-08T00:36:13.524Z,24.52
2023-02-08T00:38:41.773Z,26.75
2023-02-08T00:41:10.194Z,25.25
2023-02-08T00:43:40.391Z,27.63
2023-02-08T00:46:09.546Z,26.70
2023-02-08T00:48:38.323Z,26.58
2023-02-08T00:51:09.253Z,27.42
2023-02-08T00:53:38.473Z,25.93
2023-02-08T00:56:08.141Z,26.95
2023-02-08T00:58:36.767Z,24.75
2023-02-08T01:01:07.869Z,27.45
2023-02-08T01:03:37.318Z,25.35
2023-02-08T01:06:08.711Z,25.20
2023-02-08T01:08:38.396Z,24.85
2023-02-08T01:11:08.704Z,26.55
2023-02-08T01:13:37.697Z,26.98
2023-02-08T01:16:14.200Z,28.10
2023-02-08T01:18:44.790Z,27.52
2023-02-08T01:21:15.848Z,26.65
2023-02-08T01:23:44.618Z,27.02
2023-02-08T01:26:14.172Z,27.85
2023-02-08T01:28:44.506Z,29.63
2023-02-08T01:31:15.995Z,29.15
2023-02-08T01:33:44.350Z,27.00
2023-02-08T01:36:13.309Z,29.40
2023-02-08T01:38:41.721Z,30.52
2023-02-08T01:41:15.788Z,28.50
2023-02-08T01:44:04.426Z,32.67
2023-02-08T01:46:34.699Z,30.90
2023-02-08T01:49:07.318Z,31.65
2023-02-08T01:51:37.589Z,30.52
2023-02-08T01:54:06.785Z,32.60
2023-02-08T01:56:37.667Z,30.58
2023-02-08T02:01:39.258Z,31.15
2023-02-08T02:04:08.196Z,29.88
2023-02-08T02:06:39.137Z,31.85
2023-02-08T02:09:13.245Z,33.53
2023-02-08T02:11:41.507Z,33.15
2023-02-08T02:14:13.148Z,30.92
2023-02-08T02:16:43.079Z,32.85
2023-02-08T02:19:16.884Z,30.75
2023-02-08T02:21:53.266Z,31.38
2023-02-08T02:24:42.399Z,32.22
2023-02-08T02:27:31.323Z,32.90
2023-02-08T02:30:32.695Z,33.15
2023-02-08T02:36:04.328Z,33.60
2023-02-08T02:38:43.317Z,34.50
2023-02-08T02:41:41.165Z,32.78
2023-02-08T02:44:16.679Z,32.90
2023-02-08T02:46:49.853Z,33.15
2023-02-08T02:49:23.170Z,34.55
2023-02-08T02:51:58.326Z,33.40
2023-02-08T02:54:30.998Z,34.97
2023-02-08T02:57:02.903Z,32.28
2023-02-08T03:01:58.793Z,32.13
2023-02-08T03:04:49.850Z,34.55
2023-02-08T03:07:28.982Z,31.20
2023-02-08T03:10:05.865Z,33.10
2023-02-08T03:12:41.899Z,34.22
2023-02-08T03:15:18.321Z,33.55
2023-02-08T03:17:56.841Z,33.33
2023-02-08T03:20:27.286Z,32.22
2023-02-08T03:23:01.739Z,29.95
2023-02-08T03:25:34.288Z,30.98
2023-02-08T03:28:06.618Z,34.08
2023-02-08T03:30:46.112Z,34.65
2023-02-08T03:33:15.993Z,34.85
2023-02-08T03:35:49.804Z,35.85
2023-02-08T03:38:22.359Z,35.08
2023-02-08T03:40:52.585Z,35.45
2023-02-08T03:43:24.399Z,33.60
2023-02-08T03:48:23.117Z,31.67
2023-02-08T03:50:54.132Z,32.95
2023-02-08T03:53:25.371Z,35.25
2023-02-08T03:55:57.446Z,31.48
2023-02-08T03:58:28.182Z,35.50
2023-02-08T04:00:58.289Z,35.67
2023-02-08T04:03:28.155Z,35.40
2023-02-08T04:05:56.881Z,34.38
2023-02-08T04:08:27.357Z,33.25
2023-02-08T04:10:55.652Z,36.13
2023-02-08T04:13:24.145Z,34.28
2023-02-08T04:15:52.223Z,35.30
2023-02-08T04:18:23.479Z,34.83
2023-02-08T04:20:54.221Z,34.22
2023-02-08T04:23:22.474Z,33.78
2023-02-08T04:25:52.276Z,35.63
2023-02-08T04:28:21.635Z,37.30
2023-02-08T04:30:49.910Z,35.97
2023-02-08T04:33:18.008Z,36.70
2023-02-08T04:35:47.423Z,35.08
2023-02-08T04:38:16.030Z,37.65
2023-02-08T04:40:44.140Z,36.15
2023-02-08T04:43:19.092Z,35.10
2023-02-08T04:45:48.744Z,37.25
2023-02-08T04:48:17.184Z,38.47
2023-02-08T04:50:45.334Z,37.58
2023-02-08T04:53:13.944Z,36.53
2023-02-08T04:55:44.408Z,37.75
2023-02-08T04:58:12.502Z,39.10
2023-02-08T05:00:42.357Z,37.83
2023-02-08T05:03:11.399Z,39.28
2023-02-08T05:05:39.697Z,38.33
2023-02-08T05:08:08.109Z,39.90
2023-02-08T05:10:36.210Z,40.25
2023-02-08T05:13:06.820Z,42.15
2023-02-08T05:15:35.993Z,40.55
2023-02-08T05:18:05.786Z,41.65
2023-02-08T05:20:36.585Z,41.40
2023-02-08T05:23:06.382Z,42.35
2023-02-08T05:25:34.835Z,42.08
2023-02-08T05:28:02.976Z,42.47
2023-02-08T05:30:32.584Z,41.38
2023-02-08T05:33:01.388Z,43.28
2023-02-08T05:35:30.832Z,40.80
2023-02-08T05:37:58.933Z,42.53
2023-02-08T05:40:27.190Z,42.30
2023-02-08T05:42:55.813Z,40.40
2023-02-08T05:45:25.093Z,40.30
2023-02-08T05:47:54.564Z,40.42
2023-02-08T05:50:22.573Z,42.58
2023-02-08T05:52:52.143Z,39.97
2023-02-08T05:55:20.929Z,39.55
2023-02-08T05:57:50.262Z,41.45
2023-02-08T06:00:21.431Z,38.40
2023-02-08T06:02:50.091Z,38.92
2023-02-08T06:05:18.212Z,40.10
2023-02-08T06:07:46.511Z,39.10
2023-02-08T06:10:17.498Z,38.75
2023-02-08T06:12:45.654Z,40.30
2023-02-08T06:15:14.024Z,38.72
2023-02-08T06:17:42.177Z,40.63
2023-02-08T06:20:12.102Z,39.67
2023-02-08T06:22:40.652Z,38.42
2023-02-08T06:25:09.086Z,37.85
2023-02-08T06:27:38.663Z,38.17
2023-02-08T06:30:08.410Z,37.63
2023-02-08T06:32:36.525Z,37.90
2023-02-08T06:35:04.838Z,38.17
2023-02-08T06:37:34.682Z,37.92
2023-02-08T06:40:03.397Z,37.42
2023-02-08T06:42:31.786Z,37.65
2023-02-08T06:45:02.205Z,35.97
2023-02-08T06:47:30.565Z,37.00
2023-02-08T06:49:59.916Z,35.53
2023-02-08T06:52:28.101Z,36.63
2023-02-08T06:54:56.333Z,40.13
2023-02-08T06:57:27.917Z,36.42
2023-02-08T06:59:56.573Z,35.75
2023-02-08T07:02:26.537Z,37.30
2023-02-08T07:04:54.652Z,38.60
2023-02-08T07:07:22.784Z,36.25
2023-02-08T07:09:51.298Z,35.08
2023-02-08T07:12:19.422Z,35.38
2023-02-08T07:14:47.424Z,34.38
2023-02-08T07:17:15.890Z,36.20
2023-02-08T07:19:46.515Z,35.53
2023-02-08T07:22:14.552Z,34.17
2023-02-08T07:24:44.007Z,35.67
2023-02-08T07:27:13.850Z,34.33
2023-02-08T07:29:41.994Z,35.83
2023-02-08T07:32:11.622Z,34.90
2023-02-08T07:34:40.793Z,32.78
2023-02-08T07:37:10.525Z,33.25
2023-02-08T07:39:39.812Z,33.95
2023-02-08T07:42:09.296Z,31.60
2023-02-08T07:44:38.254Z,30.60
2023-02-08T07:47:06.467Z,30.23
2023-02-08T07:49:34.796Z,29.83
2023-02-08T07:52:03.346Z,31.42
2023-02-08T07:54:32.744Z,30.30
2023-02-08T07:57:03.177Z,29.50
2023-02-08T07:59:33.345Z,32.15
2023-02-08T08:02:01.579Z,29.15
2023-02-08T08:04:31.974Z,29.17
2023-02-08T08:07:00.004Z,29.90
2023-02-08T08:09:29.110Z,28.58
2023-02-08T08:11:59.469Z,30.67
2023-02-08T08:14:27.805Z,28.20
2023-02-08T08:16:55.836Z,29.92
2023-02-08T08:19:25.393Z,30.63
2023-02-08T08:21:53.841Z,29.40
2023-02-08T08:24:21.973Z,30.17
2023-02-08T08:26:49.996Z,31.17
2023-02-08T08:29:20.406Z,30.60
2023-02-08T08:31:51.956Z,31.40
2023-02-08T08:34:20.229Z,29.38
2023-02-08T08:36:48.994Z,29.95
2023-02-08T08:39:18.599Z,29.70
2023-02-08T08:41:47.089Z,28.60
2023-02-08T08:44:15.885Z,28.88
2023-02-08T08:46:45.526Z,28.80
2023-02-08T08:49:13.858Z,31.35
2023-02-08T08:51:42.192Z,29.63
2023-02-08T08:54:10.339Z,30.83
2023-02-08T08:56:38.822Z,28.67
2023-02-08T08:59:07.071Z,28.52
2023-02-08T09:01:35.287Z,27.80
2023-02-08T09:04:06.984Z,28.67
2023-02-08T09:06:35.979Z,29.33
2023-02-08T09:09:04.624Z,27.33
2023-02-08T09:11:34.425Z,28.05
2023-02-08T09:14:04.568Z,27.40
2023-02-08T09:16:33.523Z,28.30
2023-02-08T09:19:02.185Z,27.60
2023-02-08T09:21:33.965Z,28.45
2023-02-08T09:24:05.084Z,28.00
2023-02-08T09:26:33.283Z,29.15
2023-02-08T09:29:02.393Z,28.33
2023-02-08T09:31:32.477Z,29.55
2023-02-08T09:34:02.830Z,27.38
2023-02-08T09:36:34.955Z,27.38
2023-02-08T09:41:53.933Z,28.38
2023-02-08T09:44:26.823Z,29.02
2023-02-08T09:46:58.586Z,29.55
2023-02-08T09:49:29.638Z,29.52
2023-02-08T09:52:01.276Z,29.27
2023-02-08T09:54:32.437Z,30.17
2023-02-08T09:57:02.022Z,30.77
2023-02-08T09:59:33.290Z,29.73
2023-02-08T10:02:04.062Z,30.95
2023-02-08T10:04:44.253Z,29.75
2023-02-08T10:07:16.030Z,31.23
2023-02-08T10:09:44.210Z,29.73
2023-02-08T10:12:20.694Z,29.50
2023-02-08T10:14:58.659Z,29.27
2023-02-08T10:17:47.809Z,28.33
2023-02-08T10:20:25.244Z,28.52
2023-02-08T10:23:01.424Z,28.02
2023-02-08T10:25:43.839Z,30.08
2023-02-08T10:28:25.905Z,28.67
2023-02-08T10:30:58.639Z,33.35
2023-02-08T10:33:32.518Z,28.25
2023-02-08T10:36:00.632Z,29.73
2023-02-08T10:38:45.480Z,29.23
2023-02-08T10:41:20.846Z,27.10
2023-02-08T10:43:53.275Z,28.98
2023-02-08T10:49:01.712Z,29.02
2023-02-08T10:51:30.988Z,31.60
2023-02-08T10:54:00.695Z,28.25
2023-02-08T10:56:46.068Z,30.58
2023-02-08T10:59:20.222Z,29.38
2023-02-08T11:01:50.119Z,28.50
2023-02-08T11:04:19.249Z,28.65
2023-02-08T11:06:48.967Z,27.67
2023-02-08T11:09:24.824Z,28.83
2023-02-08T11:11:54.011Z,28.75
2023-02-08T11:14:35.105Z,28.95
2023-02-08T11:17:29.415Z,28.20
2023-02-08T11:19:59.254Z,31.05
2023-02-08T11:22:31.155Z,28.88
2023-02-08T11:25:02.975Z,27.55
2023-02-08T11:27:33.748Z,31.17
2023-02-08T11:30:19.916Z,28.05
2023-02-08T11:32:50.424Z,31.08
2023-02-08T11:35:25.078Z,30.70
2023-02-08T11:37:54.606Z,32.40
2023-02-08T11:40:36.198Z,31.48
2023-02-08T11:43:05.147Z,32.67
2023-02-08T11:45:35.416Z,29.08
2023-02-08T11:48:05.719Z,32.20
2023-02-08T11:50:36.527Z,32.38
2023-02-08T11:53:08.754Z,33.70
2023-02-08T11:55:40.754Z,31.92
2023-02-08T11:58:20.188Z,35.80
2023-02-08T12:00:59.763Z,33.30
2023-02-08T12:03:31.035Z,33.50
2023-02-08T12:06:24.410Z,33.88
2023-02-08T12:08:59.925Z,31.65
2023-02-08T12:11:34.839Z,33.33
2023-02-08T12:14:42.042Z,33.72
2023-02-08T12:17:35.768Z,33.53
2023-02-08T12:20:37.802Z,33.17
2023-02-08T12:23:25.393Z,32.40
2023-02-08T12:25:58.473Z,32.03
2023-02-08T12:28:40.267Z,30.55
2023-02-08T12:31:15.771Z,31.13
2023-02-08T12:33:53.768Z,30.35
2023-02-08T12:36:31.483Z,30.00
2023-02-08T12:39:29.488Z,29.00
2023-02-08T12:42:25.366Z,29.95
2023-02-08T12:45:31.213Z,30.58
2023-02-08T12:48:08.463Z,29.65
2023-02-08T12:50:42.569Z,32.67
2023-02-08T12:53:20.901Z,31.08
2023-02-08T12:55:49.976Z,30.25
2023-02-08T12:58:28.204Z,30.23
2023-02-08T13:01:03.596Z,30.60
2023-02-08T13:03:37.134Z,30.50
2023-02-08T13:06:07.454Z,31.30
2023-02-08T13:08:41.965Z,30.50
2023-02-08T13:11:20.082Z,31.70
2023-02-08T13:13:59.839Z,31.80
2023-02-08T13:16:34.470Z,29.35
2023-02-08T13:19:25.379Z,29.02
2023-02-08T13:21:54.776Z,28.90
2023-02-08T13:24:38.477Z,29.65
2023-02-08T13:27:08.229Z,28.85
2023-02-08T13:29:37.725Z,29.42
2023-02-08T13:32:10.205Z,30.38
2023-02-08T13:34:41.989Z,29.13
2023-02-08T13:37:25.249Z,29.42
2023-02-08T13:40:01.632Z,30.20
2023-02-08T13:42:32.859Z,28.23
2023-02-08T13:45:02.274Z,28.13
2023-02-08T13:47:33.656Z,29.67
2023-02-08T13:50:07.285Z,28.73
2023-02-08T13:52:52.151Z,27.70
2023-02-08T13:55:42.440Z,28.23
2023-02-08T13:58:31.656Z,28.25
2023-02-08T14:01:10.496Z,26.90
2023-02-08T14:03:41.222Z,26.98
2023-02-08T14:06:19.375Z,26.58
2023-02-08T14:08:55.494Z,26.60
2023-02-08T14:11:34.078Z,26.27
2023-02-08T14:14:04.445Z,27.70
2023-02-08T14:16:33.636Z,28.88
2023-02-08T14:19:06.295Z,27.20
2023-02-08T14:21:38.491Z,26.20
2023-02-08T14:24:18.665Z,27.08
2023-02-08T14:26:47.337Z,26.90
2023-02-08T14:29:23.217Z,27.58
2023-02-08T14:31:53.126Z,28.15
2023-02-08T14:34:34.642Z,28.73
2023-02-08T14:37:08.865Z,28.52
2023-02-08T14:39:38.765Z,25.65
2023-02-08T14:42:09.112Z,27.13
2023-02-08T14:45:05.592Z,26.15
2023-02-08T14:48:06.617Z,27.50
2023-02-08T14:51:04.356Z,26.48
2023-02-08T14:53:45.031Z,27.38
2023-02-08T14:56:20.675Z,25.98
2023-02-08T14:58:52.287Z,27.73
2023-02-08T15:01:24.234Z,25.73
2023-02-08T15:03:55.897Z,26.33
2023-02-08T15:07:01.892Z,28.80
2023-02-08T15:09:31.494Z,27.35
2023-02-08T15:12:02.722Z,28.05
2023-02-08T15:14:33.723Z,27.48
2023-02-08T15:17:02.484Z,27.02
2023-02-08T15:19:34.189Z,29.00
2023-02-08T15:22:19.662Z,28.02
2023-02-08T15:24:51.848Z,27.55
2023-02-08T15:29:52.197Z,26.85
2023-02-08T15:32:23.807Z,26.70
2023-02-08T15:34:56.314Z,27.05
2023-02-08T15:37:26.469Z,27.23
2023-02-08T15:39:57.018Z,27.67
2023-02-08T15:42:29.998Z,25.92
2023-02-08T15:45:00.679Z,26.27
2023-02-08T15:47:30.938Z,26.50
2023-02-08T15:49:59.949Z,26.25
2023-02-08T15:52:32.985Z,27.67
2023-02-08T15:55:01.013Z,28.15
2023-02-08T15:57:35.394Z,27.67
2023-02-08T16:00:06.129Z,27.55
2023-02-08T16:02:35.618Z,27.33
2023-02-08T16:05:13.871Z,26.38
2023-02-08T16:07:48.182Z,28.30
2023-02-08T16:10:27.141Z,27.95
2023-02-08T16:13:01.849Z,27.17
2023-02-08T16:15:38.634Z,26.42
2023-02-08T16:18:06.845Z,27.50
2023-02-08T16:20:36.817Z,27.17
2023-02-08T16:23:24.640Z,25.25
2023-02-08T16:25:53.197Z,27.15
2023-02-08T16:28:31.292Z,26.88
2023-02-08T16:31:02.755Z,28.00
2023-02-08T16:33:31.842Z,26.17
2023-02-08T16:36:02.830Z,26.88
2023-02-08T16:38:36.219Z,26.67
2023-02-08T16:41:14.793Z,39.17
2023-02-08T16:43:44.808Z,29.35
2023-02-08T16:46:22.456Z,27.77
2023-02-08T16:48:54.279Z,28.63
2023-02-08T16:51:25.565Z,28.05
2023-02-08T16:53:58.187Z,29.35
2023-02-08T16:56:26.328Z,26.20
2023-02-08T16:58:54.750Z,25.38
2023-02-08T17:01:23.759Z,25.90
2023-02-08T17:03:53.287Z,27.80
2023-02-08T17:06:28.117Z,24.20
2023-02-08T17:09:02.405Z,26.67
2023-02-08T17:11:30.838Z,26.58
2023-02-08T17:13:59.962Z,30.77
2023-02-08T17:16:30.511Z,140.50
2023-02-08T17:19:01.675Z,151.43
2023-02-08T17:24:01.713Z,31.27
2023-02-08T17:26:31.134Z,26.17
2023-02-08T17:29:02.143Z,25.65
2023-02-08T17:31:30.425Z,27.95
2023-02-08T17:34:04.469Z,28.42
2023-02-08T17:36:36.564Z,25.85
2023-02-08T17:41:35.630Z,24.38
2023-02-08T17:44:04.244Z,27.27
2023-02-08T17:46:32.924Z,28.00
2023-02-08T17:49:03.704Z,26.83
2023-02-08T17:51:34.641Z,26.42
2023-02-08T17:54:07.336Z,27.63
2023-02-08T17:56:36.555Z,28.00
2023-02-08T17:59:05.635Z,27.52
2023-02-08T18:01:35.093Z,26.73
2023-02-08T18:04:03.415Z,26.80
2023-02-08T18:06:31.586Z,28.05
2023-02-08T18:08:59.808Z,26.92
2023-02-08T18:11:30.330Z,27.83
2023-02-08T18:14:01.292Z,26.60
2023-02-08T18:16:31.952Z,27.67
2023-02-08T18:19:01.864Z,27.83
2023-02-08T18:21:33.083Z,26.08
2023-02-08T18:24:02.370Z,26.67
2023-02-08T18:26:35.741Z,27.80
2023-02-08T18:29:06.495Z,27.92
2023-02-08T18:31:34.964Z,30.17
2023-02-08T18:34:05.388Z,28.42
2023-02-08T18:36:37.261Z,25.73
2023-02-08T18:39:09.128Z,26.98
2023-02-08T18:41:38.899Z,27.27
2023-02-08T18:44:10.102Z,27.33
2023-02-08T18:46:38.338Z,27.90
2023-02-08T18:49:07.124Z,27.20
2023-02-08T18:51:35.685Z,24.65
2023-02-08T18:54:04.269Z,23.48
2023-02-08T18:56:33.766Z,24.35
2023-02-08T18:59:03.292Z,23.25
2023-02-08T19:01:32.405Z,25.70
2023-02-08T19:04:00.651Z,26.80
2023-02-08T19:06:31.330Z,26.42
2023-02-08T19:09:01.733Z,25.13
2023-02-08T19:11:36.233Z,25.35
2023-02-08T19:14:06.938Z,24.92
2023-02-08T19:16:37.229Z,25.50
2023-02-08T19:19:09.018Z,25.25
2023-02-08T19:21:37.734Z,24.50
2023-02-08T19:24:06.702Z,26.25
2023-02-08T19:26:40.917Z,24.30
2023-02-08T19:29:13.585Z,24.27
2023-02-08T19:31:50.454Z,24.90
2023-02-08T19:34:20.377Z,22.92
2023-02-08T19:36:51.724Z,24.92
2023-02-08T19:39:24.810Z,25.10
2023-02-08T19:41:54.245Z,23.40
2023-02-08T19:44:23.859Z,24.80
2023-02-08T19:46:54.932Z,24.67
2023-02-08T19:49:25.833Z,22.10
2023-02-08T19:51:54.269Z,23.58
2023-02-08T19:54:23.032Z,23.05
2023-02-08T19:56:54.775Z,23.02
2023-02-08T19:59:27.626Z,23.63
2023-02-08T20:01:56.348Z,21.23
2023-02-08T20:04:25.607Z,21.80
2023-02-08T20:06:54.947Z,20.65
2023-02-08T20:09:23.682Z,20.23
2023-02-08T20:11:59.722Z,22.02
2023-02-08T20:14:31.314Z,20.98
2023-02-08T20:16:59.773Z,21.85
2023-02-08T20:19:28.382Z,19.67
2023-02-08T20:21:56.553Z,20.38
2023-02-08T20:24:25.342Z,21.27
2023-02-08T20:26:53.353Z,19.48
2023-02-08T20:29:21.706Z,19.75
2023-02-08T20:31:56.080Z,19.60
2023-02-08T20:34:24.955Z,18.17
2023-02-08T20:37:06.499Z,17.30
2023-02-08T20:39:36.416Z,18.05
2023-02-08T20:42:07.365Z,18.90
2023-02-08T20:44:35.725Z,18.20
2023-02-08T20:47:05.101Z,16.60
2023-02-08T20:49:37.792Z,17.17
2023-02-08T20:52:07.140Z,18.42
2023-02-08T20:54:35.343Z,18.98
2023-02-08T20:57:04.168Z,17.10
2023-02-08T20:59:32.718Z,18.17
2023-02-08T21:02:04.931Z,18.77
2023-02-08T21:04:34.917Z,17.48
2023-02-08T21:07:02.966Z,18.38
2023-02-08T21:09:32.022Z,17.30
2023-02-08T21:12:00.340Z,18.98
2023-02-08T21:14:28.578Z,17.77
2023-02-08T21:16:58.904Z,17.95
2023-02-08T21:19:29.214Z,17.10
2023-02-08T21:22:00.206Z,15.93
2023-02-08T21:24:31.687Z,18.03
2023-02-08T21:26:59.948Z,18.88
2023-02-08T21:29:29.492Z,18.27
2023-02-08T21:31:58.754Z,18.05
2023-02-08T21:34:27.195Z,18.65
2023-02-08T21:36:55.196Z,16.33
2023-02-08T21:39:24.616Z,18.38
2023-02-08T21:41:53.268Z,15.32
2023-02-08T21:44:21.324Z,16.48
2023-02-08T21:46:49.644Z,17.38
2023-02-08T21:49:35.545Z,16.38
2023-02-08T21:52:21.142Z,17.58
2023-02-08T21:54:53.737Z,15.70
2023-02-08T21:57:23.879Z,16.05
2023-02-08T21:59:54.912Z,16.63
2023-02-08T22:02:25.978Z,18.88
2023-02-08T22:05:12.776Z,17.10
2023-02-08T22:07:42.921Z,17.40
2023-02-08T22:10:13.792Z,16.10
2023-02-08T22:12:41.941Z,16.58
2023-02-08T22:15:11.608Z,18.10
2023-02-08T22:17:40.169Z,16.63
2023-02-08T22:20:08.866Z,15.93
2023-02-08T22:22:37.171Z,16.38
2023-02-08T22:25:05.592Z,18.17
2023-02-08T22:27:36.568Z,14.20
2023-02-08T22:30:05.456Z,18.52
2023-02-08T22:32:33.685Z,16.90
2023-02-08T22:35:02.861Z,17.63
2023-02-08T22:37:34.412Z,15.52
2023-02-08T22:40:03.172Z,16.35
2023-02-08T22:42:32.759Z,16.08
2023-02-08T22:45:03.957Z,16.02
2023-02-08T22:47:34.075Z,16.60
2023-02-08T22:50:02.585Z,13.70
2023-02-08T22:52:35.359Z,16.70
2023-02-08T22:55:04.878Z,16.02
2023-02-08T22:57:34.343Z,16.42
2023-02-08T23:00:07.871Z,16.35
2023-02-08T23:02:36.144Z,17.88
2023-02-08T23:05:04.458Z,17.48
2023-02-08T23:07:34.232Z,17.15
2023-02-08T23:10:02.500Z,14.43
2023-02-08T23:12:31.276Z,17.50
2023-02-08T23:15:00.445Z,16.17
2023-02-08T23:17:32.115Z,15.90
2023-02-08T23:20:00.431Z,15.43
2023-02-08T23:22:28.696Z,18.00
2023-02-08T23:24:57.405Z,15.13
2023-02-08T23:27:27.188Z,18.58
2023-02-08T23:29:55.645Z,18.05
2023-02-08T23:32:23.889Z,17.98
2023-02-08T23:34:53.499Z,15.82
2023-02-08T23:37:22.240Z,17.98
2023-02-08T23:39:50.698Z,16.70
2023-02-08T23:42:26.501Z,16.77
2023-02-08T23:44:56.277Z,17.42
2023-02-08T23:47:25.163Z,16.85
2023-02-08T23:49:55.031Z,18.70
2023-02-08T23:52:23.418Z,16.60
2023-02-08T23:54:51.454Z,17.02
2023-02-08T23:57:19.760Z,17.80
2023-02-08T23:59:50.008Z,16.77
